createdAt,value
2022-09-23T00:00:01.886Z,10.4
2022-09-23T00:01:01.203Z,10.4
2022-09-23T00:02:01.936Z,10.1
2022-09-23T00:03:04.141Z,10.1
2022-09-23T00:04:01.193Z,10.3
2022-09-23T00:05:01.336Z,10.1
2022-09-23T00:06:03.530Z,10
2022-09-23T00:07:01.127Z,10
2022-09-23T00:08:01.084Z,9.7
2022-09-23T00:09:01.289Z,9.8
2022-09-23T00:10:02.500Z,9.7
2022-09-23T00:11:05.701Z,9.5
2022-09-23T00:12:03.714Z,9.6
2022-09-23T00:13:01.699Z,9.5
2022-09-23T00:14:01.940Z,9.4
2022-09-23T00:15:01.367Z,9.3
2022-09-23T00:16:09.289Z,9.4
2022-09-23T00:17:01.145Z,9.5
2022-09-23T00:18:01.869Z,9.5
2022-09-23T00:19:02.047Z,9.5
2022-09-23T00:20:02.100Z,9.3
2022-09-23T00:21:11.561Z,9.4
2022-09-23T00:22:01.762Z,9.1
2022-09-23T00:23:01.679Z,9.2
2022-09-23T00:24:01.866Z,9.2
2022-09-23T00:25:01.298Z,9.4
2022-09-23T00:26:15.105Z,9.3
2022-09-23T00:27:01.133Z,9.5
2022-09-23T00:28:01.130Z,9.5
2022-09-23T00:29:01.199Z,9.6
2022-09-23T00:30:01.376Z,9.4
2022-09-23T00:31:16.886Z,9.4
2022-09-23T00:32:01.147Z,9.3
2022-09-23T00:33:01.044Z,9.2
2022-09-23T00:34:01.331Z,9
2022-09-23T00:35:01.079Z,9.2
2022-09-23T00:36:01.052Z,9.3
2022-09-23T00:37:01.226Z,9.1
2022-09-23T00:38:01.030Z,9.1
2022-09-23T00:39:02.652Z,9.3
2022-09-23T00:40:01.206Z,9.2
2022-09-23T00:41:01.135Z,9.2
2022-09-23T00:42:01.865Z,9
2022-09-23T00:43:02.585Z,9
2022-09-23T00:44:02.045Z,9
2022-09-23T00:45:01.712Z,9.2
2022-09-23T00:46:01.895Z,9.5
2022-09-23T00:47:02.590Z,9.7
2022-09-23T00:48:01.047Z,10
2022-09-23T00:49:01.040Z,10.3
2022-09-23T00:50:01.049Z,10.4
2022-09-23T00:51:01.070Z,10.5
2022-09-23T00:52:01.070Z,10.7
2022-09-23T00:53:01.080Z,10.3
2022-09-23T00:54:01.553Z,10.4
2022-09-23T00:55:01.131Z,10.5
2022-09-23T00:56:01.242Z,10.7
2022-09-23T00:57:00.905Z,10.5
2022-09-23T00:58:00.615Z,10.6
2022-09-23T00:59:01.780Z,10.4
2022-09-23T01:00:01.180Z,10.5
2022-09-23T01:01:01.196Z,10.4
2022-09-23T01:02:01.190Z,10.3
2022-09-23T01:03:01.294Z,10
2022-09-23T01:04:01.044Z,9.8
2022-09-23T01:05:01.280Z,9.3
2022-09-23T01:06:01.938Z,8.8
2022-09-23T01:07:01.462Z,8.8
2022-09-23T01:08:01.079Z,8.8
2022-09-23T01:09:01.041Z,9.1
2022-09-23T01:10:01.083Z,9.3
2022-09-23T01:11:01.054Z,9.6
2022-09-23T01:12:01.100Z,9.4
2022-09-23T01:13:01.512Z,9.5
2022-09-23T01:14:01.118Z,9.5
2022-09-23T01:15:01.136Z,9.6
2022-09-23T01:16:01.557Z,9.7
2022-09-23T01:17:01.490Z,9.9
2022-09-23T01:18:01.517Z,9.8
2022-09-23T01:19:02.262Z,9.7
2022-09-23T01:20:02.182Z,9.7
2022-09-23T01:21:02.758Z,9.6
2022-09-23T01:22:01.724Z,9.5
2022-09-23T01:23:01.852Z,9.4
2022-09-23T01:24:01.779Z,9.3
2022-09-23T01:25:01.338Z,9.2
2022-09-23T01:26:01.407Z,9.4
2022-09-23T01:27:01.085Z,9.6
2022-09-23T01:28:01.105Z,9.8
2022-09-23T01:29:01.102Z,9.8
2022-09-23T01:29:59.979Z,9.8
2022-09-23T01:30:59.780Z,9.7
2022-09-23T01:32:01.422Z,9.7
2022-09-23T01:33:02.566Z,9.6
2022-09-23T01:34:00.908Z,9.2
2022-09-23T01:35:01.537Z,9.2
2022-09-23T01:36:01.260Z,9
2022-09-23T01:37:01.880Z,9.3
2022-09-23T01:38:01.073Z,9.5
2022-09-23T01:39:00.570Z,9.9
2022-09-23T01:40:00.462Z,10.2
2022-09-23T01:41:00.040Z,10.4
2022-09-23T01:42:00.933Z,10.4
2022-09-23T01:43:01.470Z,10.1
2022-09-23T01:44:01.225Z,9.6
2022-09-23T01:45:01.099Z,9.3
2022-09-23T01:46:01.151Z,9.4
2022-09-23T01:47:03.430Z,9.5
2022-09-23T01:48:01.204Z,9.9
2022-09-23T01:49:01.193Z,10.3
2022-09-23T01:50:01.165Z,10.3
2022-09-23T01:51:01.135Z,10.4
2022-09-23T01:52:05.450Z,10.5
2022-09-23T01:53:01.445Z,10.3
2022-09-23T01:54:01.065Z,10.3
2022-09-23T01:55:01.082Z,10.4
2022-09-23T01:56:01.080Z,10.3
2022-09-23T01:57:09.179Z,10.1
2022-09-23T01:58:01.755Z,9.9
2022-09-23T01:59:01.826Z,10.2
2022-09-23T02:00:01.780Z,10.5
2022-09-23T02:01:01.946Z,10.6
2022-09-23T02:02:11.305Z,10.4
2022-09-23T02:03:01.233Z,10.4
2022-09-23T02:04:01.153Z,10.3
2022-09-23T02:05:01.126Z,9.9
2022-09-23T02:06:01.135Z,9.8
2022-09-23T02:07:15.063Z,9.9
2022-09-23T02:08:01.051Z,9.9
2022-09-23T02:09:01.077Z,10.2
2022-09-23T02:10:01.126Z,10
2022-09-23T02:11:01.436Z,9.8
2022-09-23T02:12:16.984Z,10
2022-09-23T02:13:01.028Z,9.9
2022-09-23T02:14:01.097Z,10
2022-09-23T02:15:01.118Z,9.8
2022-09-23T02:16:01.107Z,9.9
2022-09-23T02:17:01.346Z,10
2022-09-23T02:18:01.123Z,10.3
2022-09-23T02:19:01.132Z,10.6
2022-09-23T02:20:01.561Z,10.6
2022-09-23T02:21:01.254Z,10.6
2022-09-23T02:22:01.263Z,10.4
2022-09-23T02:23:01.324Z,10.1
2022-09-23T02:24:01.861Z,9.8
2022-09-23T02:25:02.535Z,9.9
2022-09-23T02:26:01.063Z,10.2
2022-09-23T02:27:01.063Z,10.6
2022-09-23T02:28:01.580Z,10.5
2022-09-23T02:29:01.194Z,10.5
2022-09-23T02:30:01.107Z,10
2022-09-23T02:31:01.100Z,10.1
2022-09-23T02:32:01.071Z,10.2
2022-09-23T02:33:00.787Z,10.3
2022-09-23T02:34:00.317Z,10
2022-09-23T02:34:59.990Z,9.7
2022-09-23T02:35:59.692Z,9.7
2022-09-23T02:37:01.330Z,9.8
2022-09-23T02:38:08.090Z,9.7
2022-09-23T02:39:02.020Z,9.9
2022-09-23T02:40:01.056Z,10.4
2022-09-23T02:41:01.071Z,10.7
2022-09-23T02:42:01.074Z,10.9
2022-09-23T02:43:01.087Z,11
2022-09-23T02:44:01.090Z,11.2
2022-09-23T02:45:01.065Z,11.3
2022-09-23T02:46:01.158Z,11.6
2022-09-23T02:47:01.110Z,11.7
2022-09-23T02:48:01.519Z,11.8
2022-09-23T02:49:01.121Z,11.8
2022-09-23T02:50:01.127Z,11.7
2022-09-23T02:51:01.138Z,11.6
2022-09-23T02:52:01.527Z,11.6
2022-09-23T02:53:01.133Z,11.5
2022-09-23T02:54:01.149Z,11.4
2022-09-23T02:55:01.056Z,11.2
2022-09-23T02:56:01.028Z,11.3
2022-09-23T02:57:01.029Z,11.4
2022-09-23T02:58:01.422Z,11.3
2022-09-23T02:59:01.037Z,11.1
2022-09-23T03:00:01.096Z,11.2
2022-09-23T03:01:01.134Z,11
2022-09-23T03:02:01.158Z,11.1
2022-09-23T03:03:01.090Z,11.2
2022-09-23T03:04:01.152Z,11.1
2022-09-23T03:05:01.117Z,11
2022-09-23T03:06:01.116Z,10.9
2022-09-23T03:07:01.125Z,10.6
2022-09-23T03:08:01.041Z,10.7
2022-09-23T03:09:00.898Z,10.6
2022-09-23T03:10:00.740Z,10.9
2022-09-23T03:11:00.426Z,11.2
2022-09-23T03:12:00.136Z,11.3
2022-09-23T03:12:59.822Z,11.5
2022-09-23T03:14:01.673Z,11.3
2022-09-23T03:15:01.760Z,11.3
2022-09-23T03:16:01.770Z,11.4
2022-09-23T03:17:01.993Z,11.2
2022-09-23T03:18:01.418Z,11.3
2022-09-23T03:19:01.110Z,11.2
2022-09-23T03:20:01.790Z,11.2
2022-09-23T03:21:00.935Z,11.2
2022-09-23T03:22:01.139Z,11
2022-09-23T03:23:04.934Z,10.9
2022-09-23T03:24:00.827Z,10.8
2022-09-23T03:25:00.534Z,10.6
2022-09-23T03:26:00.118Z,10.4
2022-09-23T03:26:59.703Z,10.6
2022-09-23T03:28:08.197Z,10.9
2022-09-23T03:29:01.893Z,11.1
2022-09-23T03:30:01.771Z,11.4
2022-09-23T03:31:01.073Z,11.2
2022-09-23T03:32:01.213Z,11.2
2022-09-23T03:33:10.686Z,11.3
2022-09-23T03:34:01.307Z,11.3
2022-09-23T03:35:01.320Z,11.2
2022-09-23T03:36:01.319Z,11.1
2022-09-23T03:37:01.680Z,11.1
2022-09-23T03:38:12.653Z,10.9
2022-09-23T03:39:01.351Z,10.9
2022-09-23T03:40:02.480Z,11
2022-09-23T03:41:02.014Z,10.9
2022-09-23T03:42:01.729Z,11
2022-09-23T03:43:14.663Z,11.1
2022-09-23T03:44:01.355Z,11.1
2022-09-23T03:45:02.008Z,11
2022-09-23T03:46:01.153Z,11
2022-09-23T03:47:01.082Z,11
2022-09-23T03:48:16.584Z,11.5
2022-09-23T03:49:03.760Z,11.3
2022-09-23T03:50:01.776Z,11.5
2022-09-23T03:51:01.774Z,11.9
2022-09-23T03:52:02.440Z,12.5
2022-09-23T03:53:01.404Z,12.6
2022-09-23T03:54:02.072Z,12.6
2022-09-23T03:55:02.670Z,12.7
2022-09-23T03:56:01.559Z,13.3
2022-09-23T03:57:01.271Z,13.5
2022-09-23T03:58:01.071Z,13.5
2022-09-23T03:59:01.046Z,13.7
2022-09-23T04:00:01.067Z,13.6
2022-09-23T04:01:01.132Z,13.7
2022-09-23T04:02:01.131Z,14.1
2022-09-23T04:03:00.458Z,13.9
2022-09-23T04:04:00.048Z,14
2022-09-23T04:04:59.738Z,13.8
2022-09-23T04:06:02.103Z,14
2022-09-23T04:07:01.215Z,14.3
2022-09-23T04:08:01.116Z,14.6
2022-09-23T04:09:01.130Z,14.5
2022-09-23T04:10:01.145Z,14.3
2022-09-23T04:11:01.207Z,14.2
2022-09-23T04:12:01.145Z,14
2022-09-23T04:13:01.451Z,13.9
2022-09-23T04:14:01.053Z,13.8
2022-09-23T04:15:01.067Z,13.9
2022-09-23T04:16:01.096Z,13.5
2022-09-23T04:17:01.452Z,13.6
2022-09-23T04:18:02.069Z,13
2022-09-23T04:19:01.084Z,12.7
2022-09-23T04:20:00.788Z,12.6
2022-09-23T04:21:00.371Z,13
2022-09-23T04:21:59.955Z,13
2022-09-23T04:22:59.550Z,13
2022-09-23T04:24:01.693Z,13.2
2022-09-23T04:25:01.416Z,13.5
2022-09-23T04:26:02.040Z,13.8
2022-09-23T04:27:01.050Z,14
2022-09-23T04:28:01.130Z,13.8
2022-09-23T04:29:00.558Z,14
2022-09-23T04:30:00.236Z,14.1
2022-09-23T04:30:59.916Z,14.2
2022-09-23T04:31:59.642Z,14.5
2022-09-23T04:33:01.735Z,14.7
2022-09-23T04:34:01.198Z,14.6
2022-09-23T04:35:00.773Z,14.3
2022-09-23T04:36:00.366Z,14.3
2022-09-23T04:37:00.070Z,14.2
2022-09-23T04:37:59.754Z,14
2022-09-23T04:39:01.411Z,14.1
2022-09-23T04:40:01.104Z,14.4
2022-09-23T04:41:01.117Z,14.4
2022-09-23T04:42:01.123Z,14.9
2022-09-23T04:43:01.135Z,14.4
2022-09-23T04:44:01.022Z,14.1
2022-09-23T04:45:01.019Z,13.8
2022-09-23T04:46:01.063Z,13.5
2022-09-23T04:47:01.155Z,13.6
2022-09-23T04:48:01.062Z,13.4
2022-09-23T04:49:01.728Z,13.6
2022-09-23T04:50:01.080Z,13.8
2022-09-23T04:51:01.042Z,13.9
2022-09-23T04:52:00.496Z,14.1
2022-09-23T04:53:00.223Z,14.4
2022-09-23T04:53:59.806Z,14.6
2022-09-23T04:55:01.595Z,14.6
2022-09-23T04:56:01.218Z,14.6
2022-09-23T04:57:01.145Z,14.7
2022-09-23T04:58:01.137Z,14.6
2022-09-23T04:59:01.159Z,14.8
2022-09-23T05:00:01.135Z,14.7
2022-09-23T05:01:05.067Z,14.6
2022-09-23T05:02:01.109Z,14.6
2022-09-23T05:03:01.079Z,14.6
2022-09-23T05:04:01.520Z,14.7
2022-09-23T05:05:01.723Z,14.4
2022-09-23T05:06:01.833Z,14.4
2022-09-23T05:07:03.385Z,14.4
2022-09-23T05:08:01.432Z,13.9
2022-09-23T05:09:01.583Z,13.9
2022-09-23T05:10:01.168Z,14
2022-09-23T05:11:03.949Z,14.1
2022-09-23T05:12:01.045Z,14.3
2022-09-23T05:13:01.081Z,14.4
2022-09-23T05:14:01.538Z,15.1
2022-09-23T05:15:00.713Z,15.7
2022-09-23T05:16:00.414Z,16.1
2022-09-23T05:17:00.068Z,15.8
2022-09-23T05:17:59.697Z,15.2
2022-09-23T05:19:04.343Z,14.5
2022-09-23T05:20:01.331Z,14.2
2022-09-23T05:21:02.087Z,13.2
2022-09-23T05:22:01.071Z,12.6
2022-09-23T05:23:00.762Z,11.5
2022-09-23T05:24:04.746Z,10.7
2022-09-23T05:25:01.366Z,9.2
2022-09-23T05:26:01.690Z,8.6
2022-09-23T05:27:01.107Z,8.5
2022-09-23T05:28:01.106Z,8.7
2022-09-23T05:29:08.510Z,9.1
2022-09-23T05:30:01.415Z,9.4
2022-09-23T05:31:01.381Z,9.7
2022-09-23T05:32:02.163Z,10.1
2022-09-23T05:33:01.411Z,10.7
2022-09-23T05:34:11.156Z,11
2022-09-23T05:35:02.069Z,11.3
2022-09-23T05:36:01.184Z,11.7
2022-09-23T05:37:01.183Z,12.5
2022-09-23T05:38:01.083Z,12.9
2022-09-23T05:39:14.210Z,13.2
2022-09-23T05:40:00.772Z,13.8
2022-09-23T05:41:00.347Z,14.4
2022-09-23T05:42:00.079Z,15.1
2022-09-23T05:42:59.770Z,15.7
2022-09-23T05:44:16.836Z,16.7
2022-09-23T05:45:02.184Z,17.4
2022-09-23T05:46:04.828Z,17.9
2022-09-23T05:47:01.254Z,18.7
2022-09-23T05:48:01.176Z,19.2
2022-09-23T05:49:03.279Z,19.4
2022-09-23T05:50:01.502Z,19.6
2022-09-23T05:51:01.152Z,19.9
2022-09-23T05:52:01.472Z,20.1
2022-09-23T05:53:01.466Z,20.5
2022-09-23T05:54:01.227Z,20.4
2022-09-23T05:55:01.882Z,20.5
2022-09-23T05:56:01.135Z,20.5
2022-09-23T05:57:04.270Z,20.6
2022-09-23T05:58:01.408Z,20.7
2022-09-23T05:59:01.135Z,21
2022-09-23T06:00:01.216Z,21.5
2022-09-23T06:01:01.509Z,21.8
2022-09-23T06:02:01.355Z,22.3
2022-09-23T06:03:01.251Z,22.5
2022-09-23T06:04:01.171Z,23.5
2022-09-23T06:05:00.769Z,23.3
2022-09-23T06:06:00.349Z,23.6
2022-09-23T06:07:03.229Z,23.6
2022-09-23T06:08:01.973Z,23.7
2022-09-23T06:09:01.365Z,23.7
2022-09-23T06:10:00.912Z,24
2022-09-23T06:11:01.027Z,24.4
2022-09-23T06:12:01.089Z,24.7
2022-09-23T06:13:01.152Z,25.3
2022-09-23T06:14:01.377Z,25.7
2022-09-23T06:15:01.114Z,26.3
2022-09-23T06:16:01.232Z,26.7
2022-09-23T06:17:01.116Z,27.4
2022-09-23T06:18:01.121Z,27.3
2022-09-23T06:19:05.278Z,27.2
2022-09-23T06:20:01.365Z,27.1
2022-09-23T06:21:01.045Z,27.5
2022-09-23T06:22:01.052Z,27.1
2022-09-23T06:23:01.191Z,27.3
2022-09-23T06:24:01.069Z,27.4
2022-09-23T06:25:01.087Z,27.6
2022-09-23T06:26:01.078Z,27.8
2022-09-23T06:27:01.161Z,27.8
2022-09-23T06:28:01.098Z,27.3
2022-09-23T06:29:01.137Z,27.5
2022-09-23T06:30:01.219Z,27.9
2022-09-23T06:31:01.223Z,28
2022-09-23T06:32:01.194Z,28.9
2022-09-23T06:33:01.129Z,28.8
2022-09-23T06:34:12.446Z,28.7
2022-09-23T06:35:01.133Z,29.5
2022-09-23T06:36:01.140Z,30.5
2022-09-23T06:37:10.658Z,30.8
2022-09-23T06:38:01.727Z,31.4
2022-09-23T06:39:02.018Z,31.9
2022-09-23T06:40:01.687Z,31.5
2022-09-23T06:41:01.076Z,31.5
2022-09-23T06:42:01.090Z,32.5
2022-09-23T06:43:01.096Z,33.8
2022-09-23T06:44:01.512Z,33.9
2022-09-23T06:45:01.044Z,34
2022-09-23T06:46:01.148Z,34.2
2022-09-23T06:47:01.065Z,34.6
2022-09-23T06:48:01.413Z,33.9
2022-09-23T06:49:01.539Z,34.4
2022-09-23T06:50:01.271Z,36.4
2022-09-23T06:51:01.933Z,36.1
2022-09-23T06:52:01.067Z,35.8
2022-09-23T06:53:01.057Z,35.6
2022-09-23T06:54:01.082Z,36.4
2022-09-23T06:55:01.381Z,36.2
2022-09-23T06:56:01.090Z,37.2
2022-09-23T06:57:01.232Z,37.3
2022-09-23T06:58:01.087Z,37.8
2022-09-23T06:59:01.149Z,38.2
2022-09-23T07:00:01.105Z,37.9
2022-09-23T07:01:00.903Z,36.7
2022-09-23T07:02:01.314Z,36.8
2022-09-23T07:03:02.604Z,37.5
2022-09-23T07:04:01.191Z,37.7
2022-09-23T07:05:01.198Z,37
2022-09-23T07:06:01.130Z,36.8
2022-09-23T07:07:01.148Z,36.8
2022-09-23T07:08:01.039Z,37
2022-09-23T07:09:01.187Z,36.6
2022-09-23T07:10:05.781Z,38
2022-09-23T07:11:01.878Z,37.9
2022-09-23T07:12:01.076Z,37.7
2022-09-23T07:13:01.074Z,36.3
2022-09-23T07:14:01.095Z,34.6
2022-09-23T07:15:09.631Z,33.2
2022-09-23T07:16:01.158Z,32.5
2022-09-23T07:17:01.188Z,32.4
2022-09-23T07:18:01.223Z,32.7
2022-09-23T07:19:01.637Z,30.7
2022-09-23T07:20:12.657Z,31.9
2022-09-23T07:21:01.335Z,32.1
2022-09-23T07:22:01.135Z,33.8
2022-09-23T07:23:01.148Z,32.5
2022-09-23T07:24:01.054Z,31.6
2022-09-23T07:25:15.976Z,30.5
2022-09-23T07:26:01.436Z,30.8
2022-09-23T07:27:01.055Z,32.8
2022-09-23T07:28:01.068Z,32
2022-09-23T07:29:01.075Z,32.4
2022-09-23T07:30:01.046Z,32
2022-09-23T07:31:01.351Z,32.3
2022-09-23T07:32:12.464Z,31.8
2022-09-23T07:33:01.502Z,30.1
2022-09-23T07:34:02.303Z,31.3
2022-09-23T07:35:01.183Z,32.6
2022-09-23T07:36:00.839Z,32.1
2022-09-23T07:37:00.517Z,31.1
2022-09-23T07:38:00.177Z,30.5
2022-09-23T07:38:59.826Z,32.8
2022-09-23T07:40:01.467Z,31.4
2022-09-23T07:41:01.162Z,31.7
2022-09-23T07:42:01.199Z,31.9
2022-09-23T07:43:01.339Z,30.9
2022-09-23T07:44:01.790Z,30
2022-09-23T07:45:01.996Z,28.4
2022-09-23T07:46:01.109Z,30.7
2022-09-23T07:47:01.082Z,30.4
2022-09-23T07:48:01.095Z,29.2
2022-09-23T07:49:01.264Z,27.6
2022-09-23T07:50:01.182Z,26.1
2022-09-23T07:51:02.121Z,25.4
2022-09-23T07:52:01.214Z,23.7
2022-09-23T07:53:01.041Z,24.5
2022-09-23T07:54:01.544Z,26.4
2022-09-23T07:55:01.145Z,26.1
2022-09-23T07:56:01.039Z,23.8
2022-09-23T07:57:01.059Z,25.6
2022-09-23T07:58:01.075Z,26.5
2022-09-23T07:59:01.172Z,26.5
2022-09-23T08:00:01.089Z,25.8
2022-09-23T08:01:00.897Z,24.7
2022-09-23T08:02:01.367Z,24.3
2022-09-23T08:03:01.362Z,23.2
2022-09-23T08:04:01.123Z,22.6
2022-09-23T08:05:01.107Z,21.2
2022-09-23T08:06:01.209Z,20.9
2022-09-23T08:07:01.120Z,20.2
2022-09-23T08:08:01.131Z,22.9
2022-09-23T08:09:01.194Z,23.1
2022-09-23T08:10:01.132Z,23
2022-09-23T08:11:01.957Z,21.7
2022-09-23T08:12:01.059Z,23.7
2022-09-23T08:13:01.666Z,23.3
2022-09-23T08:14:01.865Z,22.5
2022-09-23T08:15:01.749Z,21.9
2022-09-23T08:16:02.038Z,23
2022-09-23T08:17:01.819Z,21.5
2022-09-23T08:18:02.110Z,21.2
2022-09-23T08:19:01.719Z,21.3
2022-09-23T08:20:01.237Z,20.9
2022-09-23T08:21:00.612Z,20.9
2022-09-23T08:22:00.210Z,20.9
2022-09-23T08:22:59.782Z,21.2
2022-09-23T08:24:01.793Z,19.9
2022-09-23T08:25:01.430Z,19.8
2022-09-23T08:26:01.396Z,19.4
2022-09-23T08:27:02.473Z,19.1
2022-09-23T08:28:02.058Z,19.2
2022-09-23T08:29:01.046Z,19.3
2022-09-23T08:30:01.057Z,20.3
2022-09-23T08:31:01.166Z,19.4
2022-09-23T08:32:01.411Z,19.4
2022-09-23T08:33:02.022Z,19.4
2022-09-23T08:34:01.103Z,21
2022-09-23T08:35:01.058Z,19.6
2022-09-23T08:36:01.100Z,19.2
2022-09-23T08:37:01.120Z,18.1
2022-09-23T08:38:01.118Z,17.5
2022-09-23T08:39:01.141Z,17.1
2022-09-23T08:40:01.126Z,16.2
2022-09-23T08:41:00.858Z,15.9
2022-09-23T08:42:00.429Z,17.3
2022-09-23T08:43:00.008Z,18.1
2022-09-23T08:43:59.709Z,18.2
2022-09-23T08:45:01.362Z,17.2
2022-09-23T08:46:04.521Z,15.2
2022-09-23T08:47:01.072Z,15
2022-09-23T08:48:01.085Z,14.6
2022-09-23T08:49:01.290Z,14.9
2022-09-23T08:50:01.477Z,15.3
2022-09-23T08:51:07.618Z,15
2022-09-23T08:52:01.261Z,14.4
2022-09-23T08:53:01.921Z,13.9
2022-09-23T08:54:01.139Z,13.4
2022-09-23T08:55:01.029Z,13.4
2022-09-23T08:56:10.199Z,13.8
2022-09-23T08:57:01.418Z,13.7
2022-09-23T08:58:24.013Z,13.7
2022-09-23T08:59:02.110Z,14.5
2022-09-23T09:00:01.906Z,14.4
2022-09-23T09:01:14.364Z,15.2
2022-09-23T09:02:01.093Z,16.5
2022-09-23T09:03:01.070Z,16.9
2022-09-23T09:04:01.330Z,16.3
2022-09-23T09:05:01.320Z,16.2
2022-09-23T09:06:16.849Z,14.6
2022-09-23T09:07:24.473Z,12.6
2022-09-23T09:08:02.220Z,11.7
2022-09-23T09:09:01.106Z,10.9
2022-09-23T09:10:01.155Z,10.9
2022-09-23T09:11:01.134Z,11.1
2022-09-23T09:12:01.253Z,10.8
2022-09-23T09:13:01.142Z,10.9
2022-09-23T09:14:01.176Z,12.6
2022-09-23T09:15:01.421Z,13.8
2022-09-23T09:16:01.485Z,13.5
2022-09-23T09:17:01.692Z,13.1
2022-09-23T09:18:01.078Z,14.6
2022-09-23T09:19:01.052Z,14.2
2022-09-23T09:20:01.073Z,13.3
2022-09-23T09:21:00.906Z,13.2
2022-09-23T09:22:01.110Z,12.6
2022-09-23T09:23:01.120Z,12.5
2022-09-23T09:24:03.778Z,12.1
2022-09-23T09:25:01.107Z,12.2
2022-09-23T09:26:01.120Z,11.3
2022-09-23T09:27:00.816Z,11.5
2022-09-23T09:28:00.512Z,13.7
2022-09-23T09:29:16.855Z,12.8
2022-09-23T09:30:01.192Z,12.3
2022-09-23T09:31:01.102Z,11.9
2022-09-23T09:32:01.057Z,11.9
2022-09-23T09:33:01.113Z,11
2022-09-23T09:34:01.387Z,10.8
2022-09-23T09:35:01.417Z,9.7
2022-09-23T09:36:02.110Z,9.4
2022-09-23T09:37:06.160Z,9.8
2022-09-23T09:38:04.594Z,9.7
2022-09-23T09:39:01.102Z,9.8
2022-09-23T09:40:01.103Z,10
2022-09-23T09:41:00.762Z,11.6
2022-09-23T09:42:00.485Z,11.5
2022-09-23T09:43:00.344Z,10.3
2022-09-23T09:44:00.075Z,9.9
2022-09-23T09:44:59.798Z,9.5
2022-09-23T09:46:01.686Z,9.5
2022-09-23T09:47:00.914Z,9.1
2022-09-23T09:48:00.644Z,8.5
2022-09-23T09:49:00.428Z,7.6
2022-09-23T09:50:00.251Z,7.5
2022-09-23T09:50:59.944Z,7.5
2022-09-23T09:51:59.738Z,7
2022-09-23T09:53:02.102Z,7.6
2022-09-23T09:54:02.384Z,7.5
2022-09-23T09:55:01.047Z,7.4
2022-09-23T09:56:05.082Z,9.4
2022-09-23T09:57:01.363Z,8.9
2022-09-23T09:58:02.482Z,9.1
2022-09-23T09:59:02.106Z,10.2
2022-09-23T10:00:01.171Z,10.2
2022-09-23T10:01:01.096Z,6.9
2022-09-23T10:02:03.961Z,4.8
2022-09-23T10:03:00.995Z,2.9
2022-09-23T10:04:01.030Z,3.8
2022-09-23T10:05:01.020Z,4
2022-09-23T10:06:01.015Z,4
2022-09-23T10:07:00.974Z,4.6
2022-09-23T10:08:01.073Z,4.4
2022-09-23T10:09:01.030Z,4.9
2022-09-23T10:10:21.827Z,6.4
2022-09-23T10:11:01.218Z,7.3
2022-09-23T10:12:01.066Z,6.8
2022-09-23T10:13:01.992Z,6.1
2022-09-23T10:14:02.620Z,5.3
2022-09-23T10:15:00.987Z,3.6
2022-09-23T10:16:01.082Z,3.9
2022-09-23T10:17:01.101Z,2.9
2022-09-23T10:18:01.211Z,2.5
2022-09-23T10:19:02.651Z,1.1
2022-09-23T10:20:02.060Z,1
2022-09-23T10:21:01.515Z,1
2022-09-23T10:22:01.718Z,1
2022-09-23T10:23:01.206Z,1
2022-09-23T10:24:01.033Z,1
2022-09-23T10:25:01.041Z,1
2022-09-23T10:26:01.044Z,1
2022-09-23T10:27:01.041Z,1
2022-09-23T10:28:06.012Z,1
2022-09-23T10:29:01.189Z,1
2022-09-23T10:30:01.062Z,1
2022-09-23T10:31:01.264Z,1
2022-09-23T10:32:03.441Z,1
2022-09-23T10:33:02.107Z,1
2022-09-23T10:34:01.917Z,1
2022-09-23T10:35:01.107Z,1
2022-09-23T10:36:01.009Z,1
2022-09-23T10:37:06.086Z,1
2022-09-23T10:38:01.724Z,1
2022-09-23T10:39:01.054Z,1
2022-09-23T10:40:01.495Z,1
2022-09-23T10:41:01.034Z,1
2022-09-23T10:42:09.538Z,1
2022-09-23T10:43:01.900Z,1
2022-09-23T10:44:01.369Z,1
2022-09-23T10:45:01.082Z,1
2022-09-23T10:46:01.138Z,1
2022-09-23T10:47:11.538Z,1
2022-09-23T10:48:01.213Z,1
2022-09-23T10:49:01.185Z,1
2022-09-23T10:50:02.512Z,1
2022-09-23T10:51:01.007Z,1
2022-09-23T10:52:14.030Z,1
2022-09-23T10:53:01.003Z,1
2022-09-23T10:54:01.050Z,1
2022-09-23T10:55:01.048Z,1
2022-09-23T10:56:01.078Z,1
2022-09-23T10:57:15.981Z,1
2022-09-23T10:58:02.122Z,1
2022-09-23T10:59:01.351Z,1
2022-09-23T11:00:01.073Z,1
2022-09-23T11:01:01.958Z,1
2022-09-23T11:02:01.191Z,1
2022-09-23T11:03:01.388Z,1
2022-09-23T11:04:01.353Z,1
2022-09-23T11:05:03.068Z,1
2022-09-23T11:06:00.076Z,1
2022-09-23T11:06:59.666Z,1
2022-09-23T11:08:01.417Z,1
2022-09-23T11:09:01.411Z,1
2022-09-23T11:10:01.038Z,1
2022-09-23T11:11:01.083Z,1
2022-09-23T11:12:01.056Z,1
2022-09-23T11:13:01.092Z,1
2022-09-23T11:14:01.073Z,1
2022-09-23T11:15:01.080Z,1
2022-09-23T11:16:01.795Z,1
2022-09-23T11:17:01.494Z,1
2022-09-23T11:18:02.083Z,1
2022-09-23T11:19:01.136Z,1
2022-09-23T11:20:01.093Z,1
2022-09-23T11:21:01.118Z,1
2022-09-23T11:22:00.820Z,1
2022-09-23T11:23:01.151Z,1
2022-09-23T11:24:01.076Z,1
2022-09-23T11:25:01.853Z,1
2022-09-23T11:26:01.727Z,1
2022-09-23T11:27:01.942Z,1
2022-09-23T11:28:01.352Z,1
2022-09-23T11:29:01.657Z,1
2022-09-23T11:30:01.290Z,1
2022-09-23T11:31:01.564Z,1
2022-09-23T11:32:01.138Z,1
2022-09-23T11:34:01.106Z,1
2022-09-23T11:35:01.114Z,1
2022-09-23T11:36:01.125Z,1
2022-09-23T11:37:01.010Z,1
2022-09-23T11:38:01.094Z,1
2022-09-23T11:39:01.019Z,1
2022-09-23T11:40:01.023Z,1
2022-09-23T11:41:01.142Z,1
2022-09-23T11:42:00.831Z,1
2022-09-23T11:43:00.448Z,1
2022-09-23T11:44:00.132Z,1
2022-09-23T11:45:00.044Z,1
2022-09-23T11:45:59.732Z,1
2022-09-23T11:47:01.394Z,1
2022-09-23T11:48:02.531Z,1
2022-09-23T11:49:01.008Z,1
2022-09-23T11:50:01.112Z,1
2022-09-23T11:51:01.111Z,1
2022-09-23T11:52:01.197Z,1
2022-09-23T11:53:01.141Z,1
2022-09-23T11:54:01.847Z,1
2022-09-23T11:55:03.602Z,1
2022-09-23T11:56:02.738Z,1
2022-09-23T11:57:01.712Z,1
2022-09-23T11:58:01.825Z,1
2022-09-23T11:59:01.501Z,1
2022-09-23T12:00:01.120Z,1
2022-09-23T12:01:01.665Z,1
2022-09-23T12:02:09.630Z,1
2022-09-23T12:03:06.010Z,1
2022-09-23T12:04:11.711Z,1
2022-09-23T12:05:03.334Z,1
2022-09-23T12:06:01.242Z,1
2022-09-23T12:07:01.108Z,1
2022-09-23T12:08:01.190Z,1
2022-09-23T12:09:01.419Z,1
2022-09-23T12:10:01.139Z,1
2022-09-23T12:11:01.015Z,1
2022-09-23T12:12:01.073Z,1
2022-09-23T12:13:01.079Z,1
2022-09-23T12:14:04.502Z,1
2022-09-23T12:15:01.061Z,1
2022-09-23T12:16:01.063Z,1
2022-09-23T12:17:01.133Z,1
2022-09-23T12:18:01.071Z,1
2022-09-23T12:19:01.475Z,1
2022-09-23T12:20:01.082Z,1
2022-09-23T12:21:01.016Z,1
2022-09-23T12:22:01.318Z,1
2022-09-23T12:23:03.886Z,1
2022-09-23T12:24:03.303Z,1
2022-09-23T12:25:01.148Z,1
2022-09-23T12:26:01.035Z,1
2022-09-23T12:27:01.304Z,1
2022-09-23T12:28:05.610Z,1
2022-09-23T12:29:01.237Z,1
2022-09-23T12:30:01.442Z,1
2022-09-23T12:31:02.133Z,1
2022-09-23T12:32:01.548Z,1
2022-09-23T12:33:08.170Z,1
2022-09-23T12:34:01.581Z,1
2022-09-23T12:35:01.086Z,1
2022-09-23T12:36:01.100Z,1
2022-09-23T12:37:01.236Z,1
2022-09-23T12:38:11.242Z,1
2022-09-23T12:39:01.509Z,1
2022-09-23T12:40:04.355Z,1
2022-09-23T12:41:01.816Z,1
2022-09-23T12:42:02.290Z,1
2022-09-23T12:43:13.940Z,1
2022-09-23T12:44:01.245Z,1
2022-09-23T12:45:01.057Z,1
2022-09-23T12:46:01.087Z,1
2022-09-23T12:47:01.441Z,1
2022-09-23T12:48:16.736Z,1
2022-09-23T12:49:02.234Z,1
2022-09-23T12:50:01.027Z,1
2022-09-23T12:51:01.019Z,1
2022-09-23T12:52:01.304Z,1
2022-09-23T12:53:01.104Z,1
2022-09-23T12:54:01.207Z,1
2022-09-23T12:55:01.126Z,1
2022-09-23T12:56:01.095Z,1
2022-09-23T12:57:01.022Z,1
2022-09-23T12:58:01.430Z,1
2022-09-23T12:59:01.053Z,1
2022-09-23T13:00:01.054Z,1
2022-09-23T13:01:01.174Z,1
2022-09-23T13:02:01.180Z,1
2022-09-23T13:03:01.077Z,1
2022-09-23T13:04:01.106Z,1
2022-09-23T13:05:01.456Z,1
2022-09-23T13:06:02.552Z,1
2022-09-23T13:07:01.199Z,1
2022-09-23T13:08:01.110Z,1
2022-09-23T13:09:01.014Z,1
2022-09-23T13:10:01.128Z,1
2022-09-23T13:11:01.129Z,1
2022-09-23T13:12:01.042Z,1
2022-09-23T13:13:01.418Z,1
2022-09-23T13:14:01.063Z,1
2022-09-23T13:15:01.344Z,1
2022-09-23T13:16:01.106Z,1
2022-09-23T13:17:01.150Z,1
2022-09-23T13:18:01.076Z,1
2022-09-23T13:19:01.094Z,1
2022-09-23T13:20:01.102Z,1
2022-09-23T13:21:01.124Z,1
2022-09-23T13:22:01.096Z,1
2022-09-23T13:23:01.362Z,1
2022-09-23T13:24:01.214Z,1
2022-09-23T13:25:01.922Z,1
2022-09-23T13:26:02.724Z,1
2022-09-23T13:27:01.178Z,1
2022-09-23T13:28:01.027Z,1
2022-09-23T13:29:01.019Z,1
2022-09-23T13:30:01.443Z,1
2022-09-23T13:31:01.192Z,1
2022-09-23T13:32:01.366Z,1
2022-09-23T13:33:01.054Z,1
2022-09-23T13:34:01.097Z,1
2022-09-23T13:35:01.093Z,1
2022-09-23T13:36:01.093Z,1
2022-09-23T13:37:01.093Z,1
2022-09-23T13:38:01.122Z,1
2022-09-23T13:39:01.297Z,1
2022-09-23T13:40:01.102Z,1
2022-09-23T13:41:01.114Z,1
2022-09-23T13:42:00.614Z,1
2022-09-23T13:43:00.195Z,1
2022-09-23T13:43:59.885Z,1
2022-09-23T13:44:59.501Z,1
2022-09-23T13:46:01.145Z,1
2022-09-23T13:47:02.109Z,1
2022-09-23T13:48:04.074Z,1